createdAt,value
2018-08-09T00:00:39.683Z,23.71
2018-08-09T00:03:07.941Z,23.60
2018-08-09T00:05:36.119Z,23.64
2018-08-09T00:08:04.597Z,23.47
2018-08-09T00:10:32.777Z,23.48
2018-08-09T00:13:00.951Z,23.43
2018-08-09T00:15:29.140Z,23.36
2018-08-09T00:17:57.353Z,23.33
2018-08-09T00:20:25.852Z,23.29
2018-08-09T00:22:54.056Z,23.26
2018-08-09T00:25:22.236Z,23.08
2018-08-09T00:27:50.470Z,23.06
2018-08-09T00:30:18.646Z,23.04
2018-08-09T00:32:46.824Z,22.94
2018-08-09T00:35:15.326Z,22.87
2018-08-09T00:37:43.898Z,22.88
2018-08-09T00:40:12.058Z,22.79
2018-08-09T00:42:40.238Z,22.79
2018-08-09T00:45:08.430Z,22.72
2018-08-09T00:47:36.597Z,22.73
2018-08-09T00:50:05.438Z,22.65
2018-08-09T00:52:33.673Z,22.50
2018-08-09T00:55:02.087Z,22.46
2018-08-09T00:57:30.253Z,22.38
2018-08-09T00:59:58.428Z,22.36
2018-08-09T01:02:26.966Z,22.30
2018-08-09T01:04:55.137Z,22.40
2018-08-09T01:07:23.313Z,22.33
2018-08-09T01:09:51.601Z,22.17
2018-08-09T01:12:19.853Z,22.17
2018-08-09T01:14:48.037Z,22.17
2018-08-09T01:17:16.217Z,22.20
2018-08-09T01:19:44.413Z,22.24
2018-08-09T01:22:12.589Z,22.29
2018-08-09T01:24:40.775Z,22.23
2018-08-09T01:27:09.556Z,22.26
2018-08-09T01:29:38.754Z,22.13
2018-08-09T01:32:06.978Z,22.12
2018-08-09T01:34:35.149Z,22.19
2018-08-09T01:37:03.388Z,22.17
2018-08-09T01:39:31.571Z,22.19
2018-08-09T01:42:10.960Z,22.04
2018-08-09T01:44:39.370Z,22.12
2018-08-09T01:47:07.606Z,21.97
2018-08-09T01:49:35.782Z,21.82
2018-08-09T01:52:04.014Z,21.66
2018-08-09T01:54:32.213Z,21.73
2018-08-09T01:57:00.401Z,21.72
2018-08-09T01:59:28.683Z,21.71
2018-08-09T02:01:56.917Z,21.74
2018-08-09T02:04:25.148Z,21.70
2018-08-09T02:06:53.409Z,21.64
2018-08-09T02:09:27.153Z,21.75
2018-08-09T02:11:55.341Z,21.71
2018-08-09T02:14:23.584Z,21.69
2018-08-09T02:16:51.753Z,21.74
2018-08-09T02:19:19.941Z,21.79
2018-08-09T02:21:48.172Z,21.78
2018-08-09T02:24:16.357Z,21.66
2018-08-09T02:26:44.539Z,21.47
2018-08-09T02:29:12.704Z,21.55
2018-08-09T02:31:41.170Z,21.53
2018-08-09T02:34:09.624Z,21.44
2018-08-09T02:36:37.793Z,21.45
2018-08-09T02:39:07.793Z,21.43
2018-08-09T02:41:36.059Z,21.46
2018-08-09T02:44:04.251Z,21.37
2018-08-09T02:46:32.766Z,21.43
2018-08-09T02:49:01.158Z,21.46
2018-08-09T02:51:29.327Z,21.46
2018-08-09T02:53:57.908Z,21.43
2018-08-09T02:56:26.118Z,21.46
2018-08-09T02:58:54.530Z,21.38
2018-08-09T03:01:22.699Z,21.33
2018-08-09T03:03:50.950Z,21.46
2018-08-09T03:06:19.134Z,21.43
2018-08-09T03:08:47.366Z,21.39
2018-08-09T03:11:15.576Z,21.32
2018-08-09T03:13:43.821Z,21.31
2018-08-09T03:16:12.018Z,21.25
2018-08-09T03:18:40.213Z,21.04
2018-08-09T03:21:08.459Z,20.99
2018-08-09T03:23:36.640Z,21.06
2018-08-09T03:26:04.953Z,21.11
2018-08-09T03:28:33.209Z,21.22
2018-08-09T03:31:01.412Z,21.16
2018-08-09T03:33:30.179Z,21.24
2018-08-09T03:36:00.212Z,21.06
2018-08-09T03:38:28.476Z,21.09
2018-08-09T03:40:56.716Z,21.08
2018-08-09T03:43:24.966Z,21.07
2018-08-09T03:45:53.154Z,21.04
2018-08-09T03:48:21.342Z,21.07
2018-08-09T03:50:49.525Z,21.04
2018-08-09T03:53:17.970Z,21.00
2018-08-09T03:55:46.166Z,21.00
2018-08-09T03:58:14.670Z,20.98
2018-08-09T04:00:42.830Z,21.07
2018-08-09T04:03:11.024Z,21.11
2018-08-09T04:05:39.221Z,21.11
2018-08-09T04:08:07.414Z,20.98
2018-08-09T04:10:35.622Z,20.96
2018-08-09T04:13:03.881Z,20.95
2018-08-09T04:15:32.073Z,21.00
2018-08-09T04:18:00.274Z,20.98
2018-08-09T04:20:28.463Z,20.96
2018-08-09T04:22:56.774Z,20.89
2018-08-09T04:25:24.977Z,20.99
2018-08-09T04:27:53.161Z,20.97
2018-08-09T04:30:21.413Z,20.99
2018-08-09T04:32:49.585Z,21.02
2018-08-09T04:35:17.772Z,20.99
2018-08-09T04:37:46.053Z,20.91
2018-08-09T04:40:14.308Z,21.06
2018-08-09T04:42:42.498Z,21.22
2018-08-09T04:45:10.678Z,21.24
2018-08-09T04:47:38.932Z,21.04
2018-08-09T04:50:08.072Z,21.04
2018-08-09T04:52:36.256Z,21.02
2018-08-09T04:55:04.436Z,21.02
2018-08-09T04:57:32.671Z,21.08
2018-08-09T05:00:00.862Z,21.15
2018-08-09T05:02:29.269Z,21.26
2018-08-09T05:04:57.451Z,21.25
2018-08-09T05:07:25.707Z,21.29
2018-08-09T05:09:54.341Z,21.32
2018-08-09T05:12:22.551Z,21.64
2018-08-09T05:14:50.752Z,21.65
2018-08-09T05:17:18.942Z,21.88
2018-08-09T05:19:47.160Z,21.83
2018-08-09T05:22:15.350Z,21.95
2018-08-09T05:24:43.533Z,22.05
2018-08-09T05:27:11.750Z,22.35
2018-08-09T05:29:39.976Z,22.42
2018-08-09T05:32:08.521Z,22.38
2018-08-09T05:34:36.690Z,22.44
2018-08-09T05:37:04.871Z,22.61
2018-08-09T05:39:33.042Z,22.70
2018-08-09T05:42:01.219Z,22.84
2018-08-09T05:44:29.384Z,22.80
2018-08-09T05:46:57.574Z,23.00
2018-08-09T05:49:25.760Z,23.03
2018-08-09T05:51:53.940Z,23.15
2018-08-09T05:54:22.136Z,23.19
2018-08-09T05:56:50.335Z,23.35
2018-08-09T05:59:18.516Z,23.66
2018-08-09T06:01:46.822Z,23.48
2018-08-09T06:04:15.442Z,23.38
2018-08-09T06:06:44.521Z,23.55
2018-08-09T06:09:13.334Z,23.70
2018-08-09T06:11:41.542Z,23.84
2018-08-09T06:14:10.490Z,24.00
2018-08-09T06:16:39.002Z,23.88
2018-08-09T06:19:08.253Z,24.23
2018-08-09T06:21:36.541Z,24.27
2018-08-09T06:24:04.777Z,24.40
2018-08-09T06:26:33.013Z,24.59
2018-08-09T06:29:01.207Z,24.77
2018-08-09T06:31:29.863Z,24.74
2018-08-09T06:33:58.607Z,24.20
2018-08-09T06:36:26.905Z,24.19
2018-08-09T06:38:55.128Z,24.70
2018-08-09T06:41:23.315Z,25.48
2018-08-09T06:43:51.522Z,25.34
2018-08-09T06:46:19.800Z,25.48
2018-08-09T06:48:48.192Z,25.45
2018-08-09T06:51:16.378Z,25.71
2018-08-09T06:53:44.614Z,25.80
2018-08-09T06:56:12.908Z,25.94
2018-08-09T06:58:41.178Z,25.68
2018-08-09T07:01:10.002Z,25.96
2018-08-09T07:03:38.329Z,25.89
2018-08-09T07:06:08.686Z,26.00
2018-08-09T07:08:37.037Z,26.39
2018-08-09T07:11:05.225Z,25.94
2018-08-09T07:13:33.469Z,25.81
2018-08-09T07:16:01.809Z,26.20
2018-08-09T07:18:30.241Z,26.44
2018-08-09T07:20:58.573Z,26.49
2018-08-09T07:23:26.987Z,26.83
2018-08-09T07:25:55.179Z,26.30
2018-08-09T07:28:23.425Z,27.28
2018-08-09T07:30:52.857Z,27.41
2018-08-09T07:33:21.079Z,27.26
2018-08-09T07:35:49.530Z,27.41
2018-08-09T07:38:18.222Z,27.51
2018-08-09T07:40:46.783Z,27.58
2018-08-09T07:43:15.694Z,27.47
2018-08-09T07:45:44.140Z,28.02
2018-08-09T07:48:12.390Z,27.52
2018-08-09T07:50:40.722Z,27.26
2018-08-09T07:53:08.956Z,27.88
2018-08-09T07:55:37.369Z,28.21
2018-08-09T07:58:05.546Z,28.04
2018-08-09T08:00:33.924Z,28.46
2018-08-09T08:03:02.180Z,28.78
2018-08-09T08:05:30.436Z,28.89
2018-08-09T08:07:58.716Z,28.67
2018-08-09T08:10:27.353Z,28.77
2018-08-09T08:12:55.562Z,29.19
2018-08-09T08:15:23.798Z,29.13
2018-08-09T08:17:52.006Z,29.22
2018-08-09T08:20:20.182Z,28.72
2018-08-09T08:22:48.386Z,29.20
2018-08-09T08:25:16.609Z,30.03
2018-08-09T08:27:44.842Z,29.76
2018-08-09T08:30:14.187Z,28.99
2018-08-09T08:32:43.053Z,28.96
2018-08-09T08:35:11.650Z,29.60
2018-08-09T08:37:40.574Z,30.15
2018-08-09T08:40:09.340Z,30.30
2018-08-09T08:42:38.161Z,29.65
2018-08-09T08:45:08.798Z,29.79
2018-08-09T08:47:44.093Z,30.98
2018-08-09T08:50:12.798Z,31.04
2018-08-09T08:52:42.034Z,30.83
2018-08-09T08:55:11.676Z,31.33
2018-08-09T08:57:39.866Z,30.84
2018-08-09T09:00:09.724Z,31.33
2018-08-09T09:02:38.361Z,31.66
2018-08-09T09:05:07.890Z,31.28
2018-08-09T09:07:36.597Z,30.26
2018-08-09T09:10:06.031Z,30.58
2018-08-09T09:12:34.221Z,31.21
2018-08-09T09:15:02.424Z,31.09
2018-08-09T09:17:30.628Z,30.57
2018-08-09T09:19:58.890Z,31.28
2018-08-09T09:22:27.248Z,31.53
2018-08-09T09:24:55.452Z,30.96
2018-08-09T09:27:23.654Z,31.32
2018-08-09T09:29:51.917Z,31.67
2018-08-09T09:32:20.150Z,31.18
2018-08-09T09:34:48.558Z,31.82
2018-08-09T09:37:16.837Z,31.38
2018-08-09T09:39:45.370Z,31.03
2018-08-09T09:42:13.593Z,31.66
2018-08-09T09:44:41.803Z,31.45
2018-08-09T09:47:10.279Z,31.82
2018-08-09T09:49:38.494Z,31.37
2018-08-09T09:52:06.729Z,31.16
2018-08-09T09:54:34.897Z,31.82
2018-08-09T09:57:03.337Z,32.41
2018-08-09T09:59:31.885Z,32.54
2018-08-09T10:02:00.103Z,32.24
2018-08-09T10:04:28.373Z,31.84
2018-08-09T10:06:56.552Z,31.84
2018-08-09T10:09:24.871Z,31.74
2018-08-09T10:11:53.313Z,32.26
2018-08-09T10:14:21.565Z,32.67
2018-08-09T10:16:49.842Z,32.92
2018-08-09T10:19:18.027Z,32.90
2018-08-09T10:21:46.288Z,32.94
2018-08-09T10:24:14.456Z,32.92
2018-08-09T10:26:42.733Z,32.24
2018-08-09T10:29:11.502Z,32.99
2018-08-09T10:31:39.710Z,33.15
2018-08-09T10:34:08.202Z,32.71
2018-08-09T10:36:36.370Z,33.22
2018-08-09T10:39:08.214Z,33.37
2018-08-09T10:41:36.445Z,32.96
2018-08-09T10:44:04.769Z,33.68
2018-08-09T10:46:33.874Z,34.19
2018-08-09T10:49:02.161Z,34.03
2018-08-09T10:51:30.326Z,34.08
2018-08-09T10:53:58.604Z,33.65
2018-08-09T10:56:27.186Z,34.35
2018-08-09T10:58:55.405Z,34.47
2018-08-09T11:01:23.641Z,34.67
2018-08-09T11:03:52.058Z,35.43
2018-08-09T11:06:20.266Z,35.63
2018-08-09T11:08:48.470Z,36.13
2018-08-09T11:11:16.703Z,35.73
2018-08-09T11:13:45.894Z,36.86
2018-08-09T11:16:14.999Z,40.93
2018-08-09T11:18:43.971Z,45.24
2018-08-09T11:21:12.565Z,44.77
2018-08-09T11:23:40.786Z,46.53
2018-08-09T11:26:09.069Z,46.60
2018-08-09T11:28:37.235Z,46.41
2018-08-09T11:31:05.418Z,46.15
2018-08-09T11:33:33.577Z,48.20
2018-08-09T11:36:02.860Z,46.19
2018-08-09T11:38:31.034Z,47.56
2018-08-09T11:40:59.186Z,46.47
2018-08-09T11:43:27.622Z,48.87
2018-08-09T11:45:55.802Z,48.52
2018-08-09T11:48:23.966Z,51.06
2018-08-09T11:50:52.150Z,52.42
2018-08-09T11:53:20.321Z,51.20
2018-08-09T11:55:48.497Z,49.99
2018-08-09T11:58:16.671Z,48.43
2018-08-09T12:00:44.855Z,51.88
2018-08-09T12:03:13.152Z,50.71
2018-08-09T12:05:41.325Z,55.44
2018-08-09T12:08:09.491Z,53.27
2018-08-09T12:10:37.672Z,45.75
2018-08-09T12:13:05.857Z,48.83
2018-08-09T12:15:34.083Z,54.51
2018-08-09T12:18:02.277Z,50.15
2018-08-09T12:20:30.479Z,47.50
2018-08-09T12:22:58.653Z,48.02
2018-08-09T12:25:26.849Z,49.68
2018-08-09T12:27:55.023Z,57.33
2018-08-09T12:30:23.205Z,57.72
2018-08-09T12:32:51.360Z,56.28
2018-08-09T12:35:20.450Z,49.12
2018-08-09T12:37:48.628Z,51.84
2018-08-09T12:40:16.796Z,52.63
2018-08-09T12:42:45.302Z,58.20
2018-08-09T12:45:13.523Z,56.70
2018-08-09T12:47:41.846Z,56.65
2018-08-09T12:50:12.561Z,54.42
2018-08-09T12:52:41.892Z,54.06
2018-08-09T12:55:10.849Z,51.66
2018-08-09T12:57:39.213Z,52.01
2018-08-09T13:00:09.871Z,55.14
2018-08-09T13:02:37.972Z,56.74
2018-08-09T13:05:07.067Z,59.87
2018-08-09T13:07:35.585Z,57.51
2018-08-09T13:10:04.793Z,59.86
2018-08-09T13:12:33.018Z,60.73
2018-08-09T13:15:01.205Z,46.55
2018-08-09T13:17:29.703Z,52.19
2018-08-09T13:19:57.899Z,49.60
2018-08-09T13:22:26.121Z,57.80
2018-08-09T13:24:54.313Z,59.66
2018-08-09T13:27:22.505Z,58.83
2018-08-09T13:29:50.678Z,51.79
2018-08-09T13:32:18.840Z,48.06
2018-08-09T13:34:47.005Z,53.24
2018-08-09T13:37:15.216Z,52.62
2018-08-09T13:39:43.667Z,49.56
2018-08-09T13:42:11.859Z,56.91
2018-08-09T13:44:40.013Z,58.75
2018-08-09T13:47:08.162Z,55.73
2018-08-09T13:49:36.395Z,56.01
2018-08-09T13:52:04.598Z,52.69
2018-08-09T13:54:32.762Z,52.93
2018-08-09T13:57:00.950Z,58.10
2018-08-09T13:59:29.396Z,58.67
2018-08-09T14:01:57.573Z,54.11
2018-08-09T14:04:25.755Z,54.00
2018-08-09T14:06:53.945Z,53.46
2018-08-09T14:09:22.101Z,57.76
2018-08-09T14:11:50.386Z,56.17
2018-08-09T14:14:18.541Z,57.45
2018-08-09T14:16:46.745Z,54.98
2018-08-09T14:19:14.917Z,57.01
2018-08-09T14:21:43.097Z,53.55
2018-08-09T14:24:12.009Z,55.08
2018-08-09T14:26:40.277Z,55.39
2018-08-09T14:29:09.209Z,52.37
2018-08-09T14:31:37.688Z,55.76
2018-08-09T14:34:06.105Z,53.77
2018-08-09T14:36:34.261Z,54.11
2018-08-09T14:39:02.426Z,55.70
2018-08-09T14:41:30.693Z,56.21
2018-08-09T14:43:58.856Z,56.62
2018-08-09T14:46:27.108Z,47.56
2018-08-09T14:48:55.293Z,52.53
2018-08-09T14:51:23.465Z,56.75
2018-08-09T14:53:51.663Z,52.73
2018-08-09T14:56:19.857Z,51.96
2018-08-09T14:58:48.066Z,52.85
2018-08-09T15:01:16.245Z,52.85
2018-08-09T15:03:44.419Z,51.80
2018-08-09T15:06:12.616Z,49.31
2018-08-09T15:08:41.358Z,46.42
2018-08-09T15:11:09.556Z,43.86
2018-08-09T15:13:37.818Z,42.38
2018-08-09T15:16:06.035Z,40.52
2018-08-09T15:18:34.531Z,39.59
2018-08-09T15:21:02.713Z,39.88
2018-08-09T15:23:30.882Z,38.22
2018-08-09T15:25:59.062Z,37.52
2018-08-09T15:28:27.250Z,38.92
2018-08-09T15:30:55.472Z,39.60
2018-08-09T15:33:23.721Z,39.81
2018-08-09T15:35:52.042Z,36.95
2018-08-09T15:38:20.313Z,37.82
2018-08-09T15:40:48.489Z,37.23
2018-08-09T15:43:16.662Z,37.25
2018-08-09T15:45:44.837Z,37.78
2018-08-09T15:48:13.086Z,37.44
2018-08-09T15:50:41.269Z,36.96
2018-08-09T15:53:09.521Z,37.35
2018-08-09T15:55:37.705Z,36.76
2018-08-09T15:58:05.957Z,37.56
2018-08-09T16:00:34.265Z,36.71
2018-08-09T16:03:02.515Z,37.38
2018-08-09T16:05:32.045Z,37.78
2018-08-09T16:08:00.238Z,37.24
2018-08-09T16:10:28.489Z,36.95
2018-08-09T16:12:56.700Z,37.73
2018-08-09T16:15:24.930Z,36.82
2018-08-09T16:17:53.151Z,36.48
2018-08-09T16:20:21.350Z,36.23
2018-08-09T16:22:49.537Z,36.41
2018-08-09T16:25:22.244Z,36.60
2018-08-09T16:27:50.885Z,36.66
2018-08-09T16:30:22.114Z,36.32
2018-08-09T16:32:50.345Z,36.80
2018-08-09T16:35:18.565Z,35.99
2018-08-09T16:37:47.250Z,35.93
2018-08-09T16:40:19.664Z,36.07
2018-08-09T16:42:47.901Z,36.11
2018-08-09T16:45:17.397Z,36.24
2018-08-09T16:47:46.729Z,36.43
2018-08-09T16:50:17.449Z,36.31
2018-08-09T16:52:46.629Z,35.90
2018-08-09T16:55:15.779Z,35.85
2018-08-09T16:57:44.031Z,35.79
2018-08-09T17:00:14.941Z,35.51
2018-08-09T17:02:43.308Z,35.84
2018-08-09T17:05:16.079Z,35.13
2018-08-09T17:07:44.364Z,34.98
2018-08-09T17:10:14.071Z,35.01
2018-08-09T17:12:42.674Z,35.14
2018-08-09T17:15:13.294Z,34.78
2018-08-09T17:17:41.894Z,34.81
2018-08-09T17:20:13.502Z,34.88
2018-08-09T17:22:42.410Z,34.71
2018-08-09T17:25:12.422Z,34.69
2018-08-09T17:27:41.742Z,34.61
2018-08-09T17:30:11.126Z,34.66
2018-08-09T17:32:40.402Z,34.76
2018-08-09T17:35:09.818Z,34.38
2018-08-09T17:37:39.358Z,34.43
2018-08-09T17:40:11.418Z,34.47
2018-08-09T17:42:42.183Z,34.22
2018-08-09T17:45:11.742Z,34.07
2018-08-09T17:47:40.059Z,33.91
2018-08-09T17:50:09.829Z,33.71
2018-08-09T17:52:38.995Z,33.43
2018-08-09T17:55:10.041Z,33.41
2018-08-09T17:57:38.712Z,33.15
2018-08-09T18:00:09.738Z,33.14
2018-08-09T18:02:38.051Z,32.97
2018-08-09T18:05:07.479Z,32.77
2018-08-09T18:07:35.849Z,32.64
2018-08-09T18:10:05.229Z,32.49
2018-08-09T18:12:33.697Z,32.40
2018-08-09T18:15:01.879Z,32.25
2018-08-09T18:17:30.478Z,31.99
2018-08-09T18:19:58.902Z,31.82
2018-08-09T18:22:27.666Z,31.67
2018-08-09T18:24:57.676Z,31.52
2018-08-09T18:27:26.489Z,31.41
2018-08-09T18:29:54.976Z,30.98
2018-08-09T18:32:23.534Z,30.78
2018-08-09T18:34:51.779Z,30.42
2018-08-09T18:37:20.004Z,30.24
2018-08-09T18:39:48.310Z,30.07
2018-08-09T18:42:16.509Z,29.93
2018-08-09T18:44:45.056Z,29.71
2018-08-09T18:47:13.366Z,29.62
2018-08-09T18:49:41.660Z,29.42
2018-08-09T18:52:10.185Z,29.41
2018-08-09T18:54:38.425Z,29.22
2018-08-09T18:57:06.685Z,29.16
2018-08-09T18:59:34.963Z,29.06
2018-08-09T19:02:03.242Z,28.91
2018-08-09T19:04:31.499Z,28.89
2018-08-09T19:06:59.679Z,28.72
2018-08-09T19:09:27.861Z,28.56
2018-08-09T19:11:59.718Z,28.62
2018-08-09T19:14:28.410Z,28.37
2018-08-09T19:16:56.622Z,28.39
2018-08-09T19:19:24.930Z,28.31
2018-08-09T19:21:53.450Z,28.32
2018-08-09T19:24:21.807Z,28.20
2018-08-09T19:26:50.042Z,28.26
2018-08-09T19:29:18.202Z,28.15
2018-08-09T19:31:46.502Z,28.14
2018-08-09T19:34:14.682Z,28.05
2018-08-09T19:36:42.928Z,28.00
2018-08-09T19:39:13.760Z,27.87
2018-08-09T19:41:43.033Z,27.84
2018-08-09T19:44:11.274Z,27.88
2018-08-09T19:46:39.538Z,27.77
2018-08-09T19:49:07.826Z,27.76
2018-08-09T19:51:36.341Z,27.75
2018-08-09T19:54:04.906Z,27.58
2018-08-09T19:56:33.208Z,27.59
2018-08-09T19:59:01.465Z,27.48
2018-08-09T20:01:29.631Z,27.60
2018-08-09T20:03:57.856Z,27.54
2018-08-09T20:06:26.130Z,27.41
2018-08-09T20:08:54.363Z,27.41
2018-08-09T20:11:22.665Z,27.32
2018-08-09T20:13:50.839Z,27.48
2018-08-09T20:16:19.019Z,27.37
2018-08-09T20:18:47.259Z,27.41
2018-08-09T20:21:15.441Z,27.42
2018-08-09T20:23:43.598Z,27.34
2018-08-09T20:26:11.786Z,27.26
2018-08-09T20:28:39.990Z,27.19
2018-08-09T20:31:08.223Z,27.31
2018-08-09T20:33:36.533Z,27.27
2018-08-09T20:36:04.728Z,27.27
2018-08-09T20:38:32.914Z,27.13
2018-08-09T20:41:01.278Z,27.19
2018-08-09T20:43:29.555Z,27.13
2018-08-09T20:45:58.157Z,26.98
2018-08-09T20:48:26.425Z,27.09
2018-08-09T20:50:54.597Z,27.01
2018-08-09T20:53:22.865Z,27.02
2018-08-09T20:55:51.065Z,26.93
2018-08-09T20:58:19.229Z,26.90
2018-08-09T21:00:47.792Z,26.94
2018-08-09T21:03:16.090Z,26.78
2018-08-09T21:05:44.355Z,26.61
2018-08-09T21:08:12.634Z,26.23
2018-08-09T21:10:40.843Z,26.22
2018-08-09T21:13:09.027Z,26.34
2018-08-09T21:15:37.349Z,26.30
2018-08-09T21:18:05.444Z,26.21
2018-08-09T21:20:33.640Z,26.07
2018-08-09T21:23:01.875Z,25.97
2018-08-09T21:25:30.055Z,25.93
2018-08-09T21:27:58.244Z,26.04
2018-08-09T21:30:26.757Z,25.77
2018-08-09T21:32:54.971Z,25.83
2018-08-09T21:35:23.266Z,25.74
2018-08-09T21:37:51.746Z,25.70
2018-08-09T21:40:19.938Z,25.63
2018-08-09T21:42:48.394Z,25.44
2018-08-09T21:45:17.751Z,25.68
2018-08-09T21:47:45.955Z,25.53
2018-08-09T21:50:16.118Z,25.74
2018-08-09T21:52:44.340Z,25.56
2018-08-09T21:55:13.196Z,25.63
2018-08-09T21:57:42.638Z,25.63
2018-08-09T22:00:49.433Z,25.58
2018-08-09T22:03:19.798Z,25.58
2018-08-09T22:05:53.344Z,25.56
2018-08-09T22:08:26.949Z,25.45
2018-08-09T22:11:00.586Z,25.47
2018-08-09T22:13:34.208Z,25.35
2018-08-09T22:16:07.813Z,25.43
2018-08-09T22:18:41.398Z,25.20
2018-08-09T22:21:14.852Z,25.13
2018-08-09T22:23:43.037Z,25.02
2018-08-09T22:26:11.965Z,25.02
2018-08-09T22:28:40.154Z,24.74
2018-08-09T22:31:08.350Z,24.68
2018-08-09T22:33:36.562Z,24.67
2018-08-09T22:36:05.081Z,24.67
2018-08-09T22:38:33.256Z,24.71
2018-08-09T22:41:02.506Z,24.70
2018-08-09T22:43:31.200Z,24.56
2018-08-09T22:45:59.382Z,24.58
2018-08-09T22:48:27.832Z,24.53
2018-08-09T22:50:56.045Z,24.39
2018-08-09T22:53:24.281Z,24.31
2018-08-09T22:55:52.453Z,24.24
2018-08-09T22:58:21.053Z,24.15
2018-08-09T23:00:49.639Z,23.93
2018-08-09T23:03:17.805Z,24.03
2018-08-09T23:05:46.067Z,23.90
2018-08-09T23:08:15.498Z,23.61
2018-08-09T23:10:44.405Z,23.54
2018-08-09T23:13:13.931Z,23.46
2018-08-09T23:15:43.241Z,23.24
2018-08-09T23:18:11.458Z,23.02
2018-08-09T23:20:40.000Z,22.98
2018-08-09T23:23:08.213Z,22.94
2018-08-09T23:25:36.699Z,23.04
2018-08-09T23:28:05.301Z,23.20
2018-08-09T23:30:33.538Z,23.39
2018-08-09T23:33:01.814Z,23.32
2018-08-09T23:35:30.034Z,22.72
2018-08-09T23:37:58.284Z,22.54
2018-08-09T23:40:26.481Z,22.58
2018-08-09T23:42:54.659Z,22.37
2018-08-09T23:45:22.820Z,22.67
2018-08-09T23:47:51.160Z,22.64
2018-08-09T23:50:19.356Z,22.57
2018-08-09T23:52:47.542Z,22.06
2018-08-09T23:55:17.478Z,22.24
2018-08-09T23:57:45.690Z,22.20
